sensor_id;sensor_type;location;lat;lon;timestamp;P1;durP1;ratioP1;P2;durP2;ratioP2
52554;SDS011;38455;52.710;6.502;2023-06-26T00:00:19;11.90;;;9.00;;
52554;SDS011;38455;52.710;6.502;2023-06-26T00:02:45;12.30;;;9.15;;
52554;SDS011;38455;52.710;6.502;2023-06-26T00:05:11;9.63;;;8.40;;
52554;SDS011;38455;52.710;6.502;2023-06-26T00:07:37;9.93;;;8.93;;
52554;SDS011;38455;52.710;6.502;2023-06-26T00:10:03;11.57;;;9.57;;
52554;SDS011;38455;52.710;6.502;2023-06-26T00:12:29;10.43;;;9.00;;
52554;SDS011;38455;52.710;6.502;2023-06-26T00:14:55;10.45;;;9.15;;
52554;SDS011;38455;52.710;6.502;2023-06-26T00:17:22;11.98;;;9.50;;
52554;SDS011;38455;52.710;6.502;2023-06-26T00:19:48;12.75;;;10.07;;
52554;SDS011;38455;52.710;6.502;2023-06-26T00:22:13;12.05;;;9.27;;
52554;SDS011;38455;52.710;6.502;2023-06-26T00:24:39;10.65;;;9.55;;
52554;SDS011;38455;52.710;6.502;2023-06-26T00:27:05;10.60;;;8.88;;
52554;SDS011;38455;52.710;6.502;2023-06-26T00:29:31;11.05;;;9.68;;
52554;SDS011;38455;52.710;6.502;2023-06-26T00:31:57;12.60;;;9.30;;
52554;SDS011;38455;52.710;6.502;2023-06-26T00:34:22;13.98;;;10.98;;
52554;SDS011;38455;52.710;6.502;2023-06-26T00:36:48;10.98;;;8.60;;
52554;SDS011;38455;52.710;6.502;2023-06-26T00:39:13;10.93;;;9.25;;
52554;SDS011;38455;52.710;6.502;2023-06-26T00:41:40;11.75;;;8.95;;
52554;SDS011;38455;52.710;6.502;2023-06-26T00:44:06;11.05;;;9.02;;
52554;SDS011;38455;52.710;6.502;2023-06-26T00:46:32;10.55;;;9.45;;
52554;SDS011;38455;52.710;6.502;2023-06-26T00:49:00;13.70;;;8.85;;
52554;SDS011;38455;52.710;6.502;2023-06-26T00:51:29;12.00;;;9.60;;
52554;SDS011;38455;52.710;6.502;2023-06-26T00:53:56;13.32;;;8.88;;
52554;SDS011;38455;52.710;6.502;2023-06-26T00:56:23;12.88;;;8.63;;
52554;SDS011;38455;52.710;6.502;2023-06-26T00:58:49;10.45;;;9.07;;
52554;SDS011;38455;52.710;6.502;2023-06-26T01:01:15;12.38;;;8.40;;
52554;SDS011;38455;52.710;6.502;2023-06-26T01:03:45;10.63;;;9.38;;
52554;SDS011;38455;52.710;6.502;2023-06-26T01:06:16;11.85;;;9.73;;
52554;SDS011;38455;52.710;6.502;2023-06-26T01:08:43;10.98;;;8.68;;
52554;SDS011;38455;52.710;6.502;2023-06-26T01:11:10;10.80;;;8.90;;
52554;SDS011;38455;52.710;6.502;2023-06-26T01:13:36;12.80;;;9.30;;
52554;SDS011;38455;52.710;6.502;2023-06-26T01:16:02;10.75;;;8.80;;
52554;SDS011;38455;52.710;6.502;2023-06-26T01:18:30;10.82;;;9.50;;
52554;SDS011;38455;52.710;6.502;2023-06-26T01:20:57;13.25;;;9.32;;
52554;SDS011;38455;52.710;6.502;2023-06-26T01:26:19;12.38;;;10.05;;
52554;SDS011;38455;52.710;6.502;2023-06-26T01:28:46;13.82;;;10.25;;
52554;SDS011;38455;52.710;6.502;2023-06-26T01:31:12;10.30;;;9.25;;
52554;SDS011;38455;52.710;6.502;2023-06-26T01:33:39;12.90;;;10.40;;
52554;SDS011;38455;52.710;6.502;2023-06-26T01:36:06;13.70;;;10.68;;
52554;SDS011;38455;52.710;6.502;2023-06-26T01:38:32;16.50;;;12.25;;
52554;SDS011;38455;52.710;6.502;2023-06-26T01:40:59;14.52;;;11.23;;
52554;SDS011;38455;52.710;6.502;2023-06-26T01:46:03;12.52;;;10.68;;
52554;SDS011;38455;52.710;6.502;2023-06-26T01:48:34;12.90;;;11.23;;
52554;SDS011;38455;52.710;6.502;2023-06-26T01:51:14;12.35;;;11.05;;
52554;SDS011;38455;52.710;6.502;2023-06-26T01:53:45;14.93;;;12.00;;
52554;SDS011;38455;52.710;6.502;2023-06-26T01:56:15;13.38;;;11.27;;
52554;SDS011;38455;52.710;6.502;2023-06-26T01:58:45;13.02;;;11.23;;
52554;SDS011;38455;52.710;6.502;2023-06-26T02:01:12;14.77;;;11.45;;
52554;SDS011;38455;52.710;6.502;2023-06-26T02:03:38;13.70;;;11.15;;
52554;SDS011;38455;52.710;6.502;2023-06-26T02:06:04;14.98;;;11.10;;
52554;SDS011;38455;52.710;6.502;2023-06-26T02:08:29;13.10;;;11.70;;
52554;SDS011;38455;52.710;6.502;2023-06-26T02:10:55;14.32;;;12.25;;
52554;SDS011;38455;52.710;6.502;2023-06-26T02:13:21;13.57;;;12.15;;
52554;SDS011;38455;52.710;6.502;2023-06-26T02:15:47;14.68;;;11.90;;
52554;SDS011;38455;52.710;6.502;2023-06-26T02:18:12;12.77;;;11.38;;
52554;SDS011;38455;52.710;6.502;2023-06-26T02:20:38;14.68;;;11.70;;
52554;SDS011;38455;52.710;6.502;2023-06-26T02:23:05;13.70;;;11.90;;
52554;SDS011;38455;52.710;6.502;2023-06-26T02:25:30;14.63;;;11.93;;
52554;SDS011;38455;52.710;6.502;2023-06-26T02:27:56;13.10;;;11.73;;
52554;SDS011;38455;52.710;6.502;2023-06-26T02:30:22;14.05;;;11.55;;
52554;SDS011;38455;52.710;6.502;2023-06-26T02:32:47;14.10;;;11.38;;
52554;SDS011;38455;52.710;6.502;2023-06-26T02:35:13;13.23;;;11.85;;
52554;SDS011;38455;52.710;6.502;2023-06-26T02:37:38;15.18;;;11.38;;
52554;SDS011;38455;52.710;6.502;2023-06-26T02:40:04;15.98;;;12.48;;
52554;SDS011;38455;52.710;6.502;2023-06-26T02:42:31;14.63;;;12.00;;
52554;SDS011;38455;52.710;6.502;2023-06-26T02:44:57;16.60;;;12.90;;
52554;SDS011;38455;52.710;6.502;2023-06-26T02:47:22;14.10;;;12.30;;
52554;SDS011;38455;52.710;6.502;2023-06-26T02:49:48;14.52;;;12.48;;
52554;SDS011;38455;52.710;6.502;2023-06-26T02:52:14;17.10;;;13.25;;
52554;SDS011;38455;52.710;6.502;2023-06-26T02:54:39;15.85;;;12.60;;
52554;SDS011;38455;52.710;6.502;2023-06-26T02:57:05;14.38;;;12.63;;
52554;SDS011;38455;52.710;6.502;2023-06-26T02:59:31;13.55;;;12.18;;
52554;SDS011;38455;52.710;6.502;2023-06-26T03:01:57;14.25;;;12.68;;
52554;SDS011;38455;52.710;6.502;2023-06-26T03:04:22;15.93;;;12.35;;
52554;SDS011;38455;52.710;6.502;2023-06-26T03:06:51;14.98;;;13.25;;
52554;SDS011;38455;52.710;6.502;2023-06-26T03:09:17;16.23;;;13.07;;
52554;SDS011;38455;52.710;6.502;2023-06-26T03:11:43;16.48;;;12.73;;
52554;SDS011;38455;52.710;6.502;2023-06-26T03:14:08;16.17;;;13.18;;
52554;SDS011;38455;52.710;6.502;2023-06-26T03:16:34;16.02;;;13.07;;
52554;SDS011;38455;52.710;6.502;2023-06-26T03:19:00;14.90;;;12.48;;
52554;SDS011;38455;52.710;6.502;2023-06-26T03:21:26;16.05;;;12.70;;
52554;SDS011;38455;52.710;6.502;2023-06-26T03:23:51;15.98;;;12.93;;
52554;SDS011;38455;52.710;6.502;2023-06-26T03:26:17;19.27;;;12.88;;
52554;SDS011;38455;52.710;6.502;2023-06-26T03:28:43;14.25;;;12.75;;
52554;SDS011;38455;52.710;6.502;2023-06-26T03:31:08;18.08;;;11.52;;
52554;SDS011;38455;52.710;6.502;2023-06-26T03:33:34;14.95;;;12.43;;
52554;SDS011;38455;52.710;6.502;2023-06-26T03:36:00;17.65;;;12.75;;
52554;SDS011;38455;52.710;6.502;2023-06-26T03:38:25;13.15;;;11.50;;
52554;SDS011;38455;52.710;6.502;2023-06-26T03:40:51;14.52;;;12.13;;
52554;SDS011;38455;52.710;6.502;2023-06-26T03:43:17;14.02;;;12.25;;
52554;SDS011;38455;52.710;6.502;2023-06-26T03:45:43;14.60;;;12.63;;
52554;SDS011;38455;52.710;6.502;2023-06-26T03:48:09;14.25;;;12.65;;
52554;SDS011;38455;52.710;6.502;2023-06-26T03:50:35;16.15;;;12.23;;
52554;SDS011;38455;52.710;6.502;2023-06-26T03:53:01;16.10;;;13.07;;
52554;SDS011;38455;52.710;6.502;2023-06-26T03:55:26;17.10;;;12.35;;
52554;SDS011;38455;52.710;6.502;2023-06-26T03:57:52;14.00;;;12.30;;
52554;SDS011;38455;52.710;6.502;2023-06-26T04:00:18;17.00;;;12.90;;
52554;SDS011;38455;52.710;6.502;2023-06-26T04:02:43;14.40;;;11.98;;
52554;SDS011;38455;52.710;6.502;2023-06-26T04:05:10;15.30;;;11.70;;
52554;SDS011;38455;52.710;6.502;2023-06-26T04:07:37;15.98;;;11.77;;
52554;SDS011;38455;52.710;6.502;2023-06-26T04:10:03;18.17;;;12.10;;
52554;SDS011;38455;52.710;6.502;2023-06-26T04:12:29;14.48;;;11.73;;
52554;SDS011;38455;52.710;6.502;2023-06-26T04:14:54;14.82;;;11.60;;
52554;SDS011;38455;52.710;6.502;2023-06-26T04:17:20;12.75;;;10.82;;
52554;SDS011;38455;52.710;6.502;2023-06-26T04:19:46;15.25;;;10.60;;
52554;SDS011;38455;52.710;6.502;2023-06-26T04:22:12;13.88;;;11.60;;
52554;SDS011;38455;52.710;6.502;2023-06-26T04:24:38;12.90;;;11.07;;
52554;SDS011;38455;52.710;6.502;2023-06-26T04:27:04;15.68;;;10.48;;
52554;SDS011;38455;52.710;6.502;2023-06-26T04:29:30;16.73;;;10.40;;
52554;SDS011;38455;52.710;6.502;2023-06-26T04:31:56;13.32;;;9.25;;
52554;SDS011;38455;52.710;6.502;2023-06-26T04:34:26;11.88;;;9.35;;
52554;SDS011;38455;52.710;6.502;2023-06-26T04:36:52;12.25;;;9.20;;
52554;SDS011;38455;52.710;6.502;2023-06-26T04:39:18;12.80;;;8.57;;
52554;SDS011;38455;52.710;6.502;2023-06-26T04:41:44;16.92;;;8.50;;
52554;SDS011;38455;52.710;6.502;2023-06-26T04:44:10;13.77;;;8.18;;
52554;SDS011;38455;52.710;6.502;2023-06-26T04:46:36;14.88;;;7.80;;
52554;SDS011;38455;52.710;6.502;2023-06-26T04:49:06;13.02;;;8.02;;
52554;SDS011;38455;52.710;6.502;2023-06-26T04:51:35;13.15;;;7.65;;
52554;SDS011;38455;52.710;6.502;2023-06-26T04:54:07;14.15;;;7.30;;
52554;SDS011;38455;52.710;6.502;2023-06-26T04:56:34;17.50;;;8.25;;
52554;SDS011;38455;52.710;6.502;2023-06-26T04:59:00;17.10;;;7.88;;
52554;SDS011;38455;52.710;6.502;2023-06-26T05:01:26;12.75;;;7.32;;
52554;SDS011;38455;52.710;6.502;2023-06-26T05:03:55;23.02;;;6.75;;
52554;SDS011;38455;52.710;6.502;2023-06-26T05:06:24;15.77;;;6.75;;
52554;SDS011;38455;52.710;6.502;2023-06-26T05:08:49;13.35;;;6.68;;
52554;SDS011;38455;52.710;6.502;2023-06-26T05:11:15;14.40;;;6.93;;
52554;SDS011;38455;52.710;6.502;2023-06-26T05:13:41;15.32;;;6.15;;
52554;SDS011;38455;52.710;6.502;2023-06-26T05:16:07;18.10;;;6.88;;
52554;SDS011;38455;52.710;6.502;2023-06-26T05:18:34;18.33;;;6.97;;
52554;SDS011;38455;52.710;6.502;2023-06-26T05:21:00;15.43;;;7.18;;
52554;SDS011;38455;52.710;6.502;2023-06-26T05:23:26;20.75;;;7.65;;
52554;SDS011;38455;52.710;6.502;2023-06-26T05:25:55;19.90;;;7.70;;
52554;SDS011;38455;52.710;6.502;2023-06-26T05:28:21;20.77;;;6.40;;
52554;SDS011;38455;52.710;6.502;2023-06-26T05:30:48;13.75;;;6.75;;
52554;SDS011;38455;52.710;6.502;2023-06-26T05:33:14;18.40;;;6.68;;
52554;SDS011;38455;52.710;6.502;2023-06-26T05:35:42;12.02;;;6.20;;
52554;SDS011;38455;52.710;6.502;2023-06-26T05:38:09;16.65;;;7.22;;
52554;SDS011;38455;52.710;6.502;2023-06-26T05:40:35;20.83;;;6.10;;
52554;SDS011;38455;52.710;6.502;2023-06-26T05:43:01;17.92;;;7.43;;
52554;SDS011;38455;52.710;6.502;2023-06-26T05:45:27;19.95;;;6.47;;
52554;SDS011;38455;52.710;6.502;2023-06-26T05:47:53;8.20;;;5.55;;
52554;SDS011;38455;52.710;6.502;2023-06-26T05:50:19;12.90;;;6.53;;
52554;SDS011;38455;52.710;6.502;2023-06-26T05:52:45;13.25;;;5.82;;
52554;SDS011;38455;52.710;6.502;2023-06-26T05:55:11;12.20;;;5.30;;
52554;SDS011;38455;52.710;6.502;2023-06-26T05:57:38;13.18;;;5.45;;
52554;SDS011;38455;52.710;6.502;2023-06-26T06:00:05;9.88;;;4.82;;
52554;SDS011;38455;52.710;6.502;2023-06-26T06:02:35;9.80;;;4.80;;
52554;SDS011;38455;52.710;6.502;2023-06-26T06:05:02;13.65;;;5.03;;
52554;SDS011;38455;52.710;6.502;2023-06-26T06:07:28;10.95;;;4.38;;
52554;SDS011;38455;52.710;6.502;2023-06-26T06:09:54;14.25;;;4.68;;
52554;SDS011;38455;52.710;6.502;2023-06-26T06:12:19;9.93;;;4.25;;
52554;SDS011;38455;52.710;6.502;2023-06-26T06:14:45;7.90;;;4.50;;
52554;SDS011;38455;52.710;6.502;2023-06-26T06:17:11;6.55;;;3.08;;
52554;SDS011;38455;52.710;6.502;2023-06-26T06:19:36;24.95;;;4.63;;
52554;SDS011;38455;52.710;6.502;2023-06-26T06:22:02;8.10;;;3.33;;
52554;SDS011;38455;52.710;6.502;2023-06-26T06:24:28;4.63;;;1.80;;
52554;SDS011;38455;52.710;6.502;2023-06-26T06:26:53;8.63;;;2.05;;
52554;SDS011;38455;52.710;6.502;2023-06-26T06:29:19;2.80;;;1.48;;
52554;SDS011;38455;52.710;6.502;2023-06-26T06:31:45;4.03;;;1.67;;
52554;SDS011;38455;52.710;6.502;2023-06-26T06:34:11;3.20;;;1.55;;
52554;SDS011;38455;52.710;6.502;2023-06-26T06:36:37;5.40;;;1.77;;
52554;SDS011;38455;52.710;6.502;2023-06-26T06:39:03;3.28;;;1.50;;
52554;SDS011;38455;52.710;6.502;2023-06-26T06:41:32;5.30;;;1.75;;
52554;SDS011;38455;52.710;6.502;2023-06-26T06:43:58;5.57;;;1.77;;
52554;SDS011;38455;52.710;6.502;2023-06-26T06:46:23;4.05;;;1.50;;
52554;SDS011;38455;52.710;6.502;2023-06-26T06:48:52;5.05;;;1.38;;
52554;SDS011;38455;52.710;6.502;2023-06-26T06:51:18;4.90;;;1.50;;
52554;SDS011;38455;52.710;6.502;2023-06-26T06:53:43;3.78;;;1.67;;
52554;SDS011;38455;52.710;6.502;2023-06-26T06:56:09;6.28;;;1.85;;
52554;SDS011;38455;52.710;6.502;2023-06-26T06:58:35;5.63;;;2.05;;
52554;SDS011;38455;52.710;6.502;2023-06-26T07:01:01;3.60;;;1.83;;
52554;SDS011;38455;52.710;6.502;2023-06-26T07:03:27;5.10;;;1.75;;
52554;SDS011;38455;52.710;6.502;2023-06-26T07:05:53;5.68;;;2.42;;
52554;SDS011;38455;52.710;6.502;2023-06-26T07:08:20;4.50;;;1.80;;
52554;SDS011;38455;52.710;6.502;2023-06-26T07:10:46;5.68;;;2.17;;
52554;SDS011;38455;52.710;6.502;2023-06-26T07:13:11;4.10;;;1.80;;
52554;SDS011;38455;52.710;6.502;2023-06-26T07:15:37;7.63;;;2.17;;
52554;SDS011;38455;52.710;6.502;2023-06-26T07:18:03;3.40;;;1.75;;
52554;SDS011;38455;52.710;6.502;2023-06-26T07:20:28;5.30;;;2.00;;
52554;SDS011;38455;52.710;6.502;2023-06-26T07:22:54;5.55;;;1.63;;
52554;SDS011;38455;52.710;6.502;2023-06-26T07:25:20;4.38;;;1.50;;
52554;SDS011;38455;52.710;6.502;2023-06-26T07:27:45;8.52;;;2.17;;
52554;SDS011;38455;52.710;6.502;2023-06-26T07:30:11;4.18;;;1.50;;
52554;SDS011;38455;52.710;6.502;2023-06-26T07:32:37;2.30;;;1.35;;
52554;SDS011;38455;52.710;6.502;2023-06-26T07:35:03;4.50;;;1.40;;
52554;SDS011;38455;52.710;6.502;2023-06-26T07:37:30;3.95;;;1.35;;
52554;SDS011;38455;52.710;6.502;2023-06-26T07:39:55;7.43;;;1.30;;
52554;SDS011;38455;52.710;6.502;2023-06-26T07:42:21;3.45;;;1.60;;
52554;SDS011;38455;52.710;6.502;2023-06-26T07:44:47;6.65;;;1.30;;
52554;SDS011;38455;52.710;6.502;2023-06-26T07:47:13;3.80;;;1.30;;
52554;SDS011;38455;52.710;6.502;2023-06-26T07:49:39;4.82;;;1.45;;
52554;SDS011;38455;52.710;6.502;2023-06-26T07:52:05;2.97;;;1.40;;
52554;SDS011;38455;52.710;6.502;2023-06-26T07:54:31;7.53;;;1.75;;
52554;SDS011;38455;52.710;6.502;2023-06-26T07:57:01;3.72;;;1.58;;
52554;SDS011;38455;52.710;6.502;2023-06-26T07:59:28;4.70;;;1.45;;
52554;SDS011;38455;52.710;6.502;2023-06-26T08:01:55;5.45;;;1.20;;
52554;SDS011;38455;52.710;6.502;2023-06-26T08:04:23;4.93;;;1.30;;
52554;SDS011;38455;52.710;6.502;2023-06-26T08:06:51;4.03;;;1.35;;
52554;SDS011;38455;52.710;6.502;2023-06-26T08:09:21;5.55;;;1.33;;
52554;SDS011;38455;52.710;6.502;2023-06-26T08:11:48;5.45;;;1.50;;
52554;SDS011;38455;52.710;6.502;2023-06-26T08:14:14;4.82;;;2.15;;
52554;SDS011;38455;52.710;6.502;2023-06-26T08:16:41;3.55;;;1.70;;
52554;SDS011;38455;52.710;6.502;2023-06-26T08:19:09;4.65;;;1.48;;
52554;SDS011;38455;52.710;6.502;2023-06-26T08:21:35;2.63;;;1.23;;
52554;SDS011;38455;52.710;6.502;2023-06-26T08:24:01;4.55;;;1.13;;
52554;SDS011;38455;52.710;6.502;2023-06-26T08:26:27;4.25;;;1.48;;
52554;SDS011;38455;52.710;6.502;2023-06-26T08:28:53;3.63;;;1.27;;
52554;SDS011;38455;52.710;6.502;2023-06-26T08:31:19;4.65;;;1.40;;
52554;SDS011;38455;52.710;6.502;2023-06-26T08:33:45;4.70;;;1.58;;
52554;SDS011;38455;52.710;6.502;2023-06-26T08:36:12;2.00;;;1.25;;
52554;SDS011;38455;52.710;6.502;2023-06-26T08:38:38;9.18;;;2.38;;
52554;SDS011;38455;52.710;6.502;2023-06-26T08:41:06;5.03;;;1.50;;
52554;SDS011;38455;52.710;6.502;2023-06-26T08:43:33;4.28;;;1.30;;
52554;SDS011;38455;52.710;6.502;2023-06-26T08:45:59;5.20;;;1.70;;
52554;SDS011;38455;52.710;6.502;2023-06-26T08:48:25;4.55;;;1.60;;
52554;SDS011;38455;52.710;6.502;2023-06-26T08:50:52;4.97;;;1.70;;
52554;SDS011;38455;52.710;6.502;2023-06-26T08:53:40;4.85;;;1.58;;
52554;SDS011;38455;52.710;6.502;2023-06-26T08:56:32;4.10;;;1.70;;
52554;SDS011;38455;52.710;6.502;2023-06-26T08:59:04;6.50;;;1.58;;
52554;SDS011;38455;52.710;6.502;2023-06-26T09:01:31;4.65;;;2.00;;
52554;SDS011;38455;52.710;6.502;2023-06-26T09:03:57;3.03;;;1.60;;
52554;SDS011;38455;52.710;6.502;2023-06-26T09:06:23;5.65;;;1.73;;
52554;SDS011;38455;52.710;6.502;2023-06-26T09:08:48;4.07;;;1.70;;
52554;SDS011;38455;52.710;6.502;2023-06-26T09:11:15;4.28;;;1.70;;
52554;SDS011;38455;52.710;6.502;2023-06-26T09:13:41;3.80;;;2.10;;
52554;SDS011;38455;52.710;6.502;2023-06-26T09:16:08;3.65;;;1.58;;
52554;SDS011;38455;52.710;6.502;2023-06-26T09:18:34;3.67;;;1.70;;
52554;SDS011;38455;52.710;6.502;2023-06-26T09:21:00;5.40;;;1.70;;
52554;SDS011;38455;52.710;6.502;2023-06-26T09:23:32;6.65;;;2.08;;
52554;SDS011;38455;52.710;6.502;2023-06-26T09:25:58;5.45;;;1.77;;
52554;SDS011;38455;52.710;6.502;2023-06-26T09:28:24;3.90;;;1.75;;
52554;SDS011;38455;52.710;6.502;2023-06-26T09:30:51;4.82;;;1.90;;
52554;SDS011;38455;52.710;6.502;2023-06-26T09:33:18;6.18;;;2.08;;
52554;SDS011;38455;52.710;6.502;2023-06-26T09:35:45;6.30;;;1.83;;
52554;SDS011;38455;52.710;6.502;2023-06-26T09:38:11;5.82;;;2.33;;
52554;SDS011;38455;52.710;6.502;2023-06-26T09:40:38;2.40;;;1.67;;
52554;SDS011;38455;52.710;6.502;2023-06-26T09:43:07;6.60;;;2.00;;
52554;SDS011;38455;52.710;6.502;2023-06-26T09:45:34;5.43;;;2.00;;
52554;SDS011;38455;52.710;6.502;2023-06-26T09:48:04;4.38;;;1.73;;
52554;SDS011;38455;52.710;6.502;2023-06-26T09:50:32;4.50;;;2.30;;
52554;SDS011;38455;52.710;6.502;2023-06-26T09:53:06;5.68;;;1.90;;
52554;SDS011;38455;52.710;6.502;2023-06-26T09:55:40;7.88;;;1.98;;
52554;SDS011;38455;52.710;6.502;2023-06-26T09:58:09;9.02;;;2.10;;
52554;SDS011;38455;52.710;6.502;2023-06-26T10:00:39;4.40;;;1.95;;
52554;SDS011;38455;52.710;6.502;2023-06-26T10:03:10;4.90;;;1.98;;
52554;SDS011;38455;52.710;6.502;2023-06-26T10:05:37;4.72;;;1.58;;
52554;SDS011;38455;52.710;6.502;2023-06-26T10:08:04;7.57;;;2.00;;
52554;SDS011;38455;52.710;6.502;2023-06-26T10:10:31;7.55;;;2.15;;
52554;SDS011;38455;52.710;6.502;2023-06-26T10:13:04;6.18;;;1.80;;
52554;SDS011;38455;52.710;6.502;2023-06-26T10:15:36;6.03;;;1.90;;
52554;SDS011;38455;52.710;6.502;2023-06-26T10:18:02;9.98;;;2.30;;
52554;SDS011;38455;52.710;6.502;2023-06-26T10:20:29;4.35;;;1.83;;
52554;SDS011;38455;52.710;6.502;2023-06-26T10:22:55;2.03;;;1.40;;
52554;SDS011;38455;52.710;6.502;2023-06-26T10:25:25;4.00;;;1.50;;
52554;SDS011;38455;52.710;6.502;2023-06-26T10:27:55;7.18;;;1.85;;
52554;SDS011;38455;52.710;6.502;2023-06-26T10:30:24;5.13;;;1.70;;
52554;SDS011;38455;52.710;6.502;2023-06-26T10:32:53;4.78;;;1.90;;
52554;SDS011;38455;52.710;6.502;2023-06-26T10:35:20;5.30;;;1.35;;
52554;SDS011;38455;52.710;6.502;2023-06-26T10:37:50;3.75;;;1.55;;
52554;SDS011;38455;52.710;6.502;2023-06-26T10:40:25;5.93;;;1.83;;
52554;SDS011;38455;52.710;6.502;2023-06-26T10:42:52;4.80;;;1.60;;
52554;SDS011;38455;52.710;6.502;2023-06-26T10:45:33;5.22;;;1.80;;
52554;SDS011;38455;52.710;6.502;2023-06-26T10:47:59;7.80;;;1.33;;
52554;SDS011;38455;52.710;6.502;2023-06-26T10:50:32;5.63;;;1.50;;
52554;SDS011;38455;52.710;6.502;2023-06-26T10:53:12;3.78;;;1.67;;
52554;SDS011;38455;52.710;6.502;2023-06-26T10:55:55;3.95;;;1.67;;
52554;SDS011;38455;52.710;6.502;2023-06-26T11:01:28;5.10;;;1.80;;
52554;SDS011;38455;52.710;6.502;2023-06-26T11:03:48;7.78;;;1.40;;
52554;SDS011;38455;52.710;6.502;2023-06-26T11:06:31;5.03;;;1.80;;
52554;SDS011;38455;52.710;6.502;2023-06-26T11:14:21;5.60;;;1.70;;
52554;SDS011;38455;52.710;6.502;2023-06-26T11:16:48;4.90;;;1.30;;
52554;SDS011;38455;52.710;6.502;2023-06-26T11:19:14;5.57;;;1.50;;
52554;SDS011;38455;52.710;6.502;2023-06-26T11:21:41;2.90;;;1.40;;
52554;SDS011;38455;52.710;6.502;2023-06-26T11:24:09;4.85;;;1.35;;
52554;SDS011;38455;52.710;6.502;2023-06-26T11:26:39;5.18;;;1.30;;
52554;SDS011;38455;52.710;6.502;2023-06-26T11:29:07;5.47;;;1.40;;
52554;SDS011;38455;52.710;6.502;2023-06-26T11:31:34;4.65;;;1.50;;
52554;SDS011;38455;52.710;6.502;2023-06-26T11:34:02;3.53;;;1.23;;
52554;SDS011;38455;52.710;6.502;2023-06-26T11:36:30;4.45;;;1.45;;
52554;SDS011;38455;52.710;6.502;2023-06-26T11:38:57;3.42;;;1.30;;
52554;SDS011;38455;52.710;6.502;2023-06-26T11:41:25;6.35;;;1.23;;
52554;SDS011;38455;52.710;6.502;2023-06-26T11:44:01;4.63;;;1.40;;
52554;SDS011;38455;52.710;6.502;2023-06-26T11:46:28;7.38;;;1.58;;
52554;SDS011;38455;52.710;6.502;2023-06-26T11:48:53;6.72;;;1.63;;
52554;SDS011;38455;52.710;6.502;2023-06-26T11:51:20;4.93;;;1.58;;
52554;SDS011;38455;52.710;6.502;2023-06-26T11:53:46;7.97;;;1.40;;
52554;SDS011;38455;52.710;6.502;2023-06-26T11:56:14;4.55;;;1.00;;
52554;SDS011;38455;52.710;6.502;2023-06-26T11:59:00;3.65;;;0.95;;
52554;SDS011;38455;52.710;6.502;2023-06-26T12:01:31;5.53;;;1.33;;
52554;SDS011;38455;52.710;6.502;2023-06-26T12:03:59;4.40;;;1.20;;
52554;SDS011;38455;52.710;6.502;2023-06-26T12:06:27;3.00;;;1.00;;
52554;SDS011;38455;52.710;6.502;2023-06-26T12:08:54;5.57;;;1.20;;
52554;SDS011;38455;52.710;6.502;2023-06-26T12:11:20;4.88;;;1.13;;
52554;SDS011;38455;52.710;6.502;2023-06-26T12:13:49;3.15;;;1.05;;
52554;SDS011;38455;52.710;6.502;2023-06-26T12:16:15;3.22;;;0.95;;
52554;SDS011;38455;52.710;6.502;2023-06-26T12:18:41;5.57;;;0.95;;
52554;SDS011;38455;52.710;6.502;2023-06-26T12:21:07;11.27;;;1.52;;
52554;SDS011;38455;52.710;6.502;2023-06-26T12:23:33;5.32;;;1.13;;
52554;SDS011;38455;52.710;6.502;2023-06-26T12:26:16;3.38;;;0.90;;
52554;SDS011;38455;52.710;6.502;2023-06-26T12:28:45;3.08;;;1.10;;
52554;SDS011;38455;52.710;6.502;2023-06-26T12:31:15;4.45;;;1.15;;
52554;SDS011;38455;52.710;6.502;2023-06-26T12:33:44;3.70;;;1.33;;
52554;SDS011;38455;52.710;6.502;2023-06-26T12:36:12;4.75;;;1.00;;
52554;SDS011;38455;52.710;6.502;2023-06-26T12:38:38;6.82;;;1.60;;
52554;SDS011;38455;52.710;6.502;2023-06-26T12:41:05;3.20;;;1.02;;
52554;SDS011;38455;52.710;6.502;2023-06-26T12:43:37;4.65;;;1.25;;
52554;SDS011;38455;52.710;6.502;2023-06-26T12:46:04;5.10;;;0.88;;
52554;SDS011;38455;52.710;6.502;2023-06-26T12:48:40;5.05;;;1.40;;
52554;SDS011;38455;52.710;6.502;2023-06-26T12:51:11;3.05;;;0.93;;
52554;SDS011;38455;52.710;6.502;2023-06-26T12:53:40;4.38;;;0.85;;
52554;SDS011;38455;52.710;6.502;2023-06-26T12:56:07;3.75;;;1.10;;
52554;SDS011;38455;52.710;6.502;2023-06-26T12:58:36;9.23;;;1.70;;
52554;SDS011;38455;52.710;6.502;2023-06-26T13:01:03;5.63;;;1.33;;
52554;SDS011;38455;52.710;6.502;2023-06-26T13:03:40;6.75;;;1.17;;
52554;SDS011;38455;52.710;6.502;2023-06-26T13:06:06;6.95;;;1.48;;
52554;SDS011;38455;52.710;6.502;2023-06-26T13:08:33;4.40;;;1.23;;
52554;SDS011;38455;52.710;6.502;2023-06-26T13:10:59;3.95;;;1.40;;
52554;SDS011;38455;52.710;6.502;2023-06-26T13:13:24;4.78;;;1.00;;
52554;SDS011;38455;52.710;6.502;2023-06-26T13:15:50;3.75;;;0.95;;
52554;SDS011;38455;52.710;6.502;2023-06-26T13:18:16;4.63;;;1.00;;
52554;SDS011;38455;52.710;6.502;2023-06-26T13:20:42;4.07;;;1.15;;
52554;SDS011;38455;52.710;6.502;2023-06-26T13:23:08;6.57;;;1.25;;
52554;SDS011;38455;52.710;6.502;2023-06-26T13:25:34;4.90;;;1.10;;
52554;SDS011;38455;52.710;6.502;2023-06-26T13:27:59;7.65;;;2.35;;
52554;SDS011;38455;52.710;6.502;2023-06-26T13:30:25;7.93;;;2.05;;
52554;SDS011;38455;52.710;6.502;2023-06-26T13:32:51;5.22;;;1.10;;
52554;SDS011;38455;52.710;6.502;2023-06-26T13:35:16;2.78;;;1.05;;
52554;SDS011;38455;52.710;6.502;2023-06-26T13:37:43;6.00;;;1.30;;
52554;SDS011;38455;52.710;6.502;2023-06-26T13:40:08;4.05;;;0.90;;
52554;SDS011;38455;52.710;6.502;2023-06-26T13:42:35;4.30;;;1.45;;
52554;SDS011;38455;52.710;6.502;2023-06-26T13:45:01;8.82;;;1.35;;
52554;SDS011;38455;52.710;6.502;2023-06-26T13:47:28;9.57;;;2.00;;
52554;SDS011;38455;52.710;6.502;2023-06-26T13:49:54;6.32;;;1.23;;
52554;SDS011;38455;52.710;6.502;2023-06-26T13:52:20;3.60;;;1.15;;
52554;SDS011;38455;52.710;6.502;2023-06-26T13:54:46;8.80;;;1.30;;
52554;SDS011;38455;52.710;6.502;2023-06-26T13:57:11;2.88;;;1.10;;
52554;SDS011;38455;52.710;6.502;2023-06-26T13:59:37;4.47;;;0.80;;
52554;SDS011;38455;52.710;6.502;2023-06-26T14:02:07;5.97;;;1.02;;
52554;SDS011;38455;52.710;6.502;2023-06-26T14:04:33;6.03;;;1.45;;
52554;SDS011;38455;52.710;6.502;2023-06-26T14:06:59;8.00;;;2.83;;
52554;SDS011;38455;52.710;6.502;2023-06-26T14:09:24;6.72;;;1.50;;
52554;SDS011;38455;52.710;6.502;2023-06-26T14:11:50;7.82;;;1.70;;
52554;SDS011;38455;52.710;6.502;2023-06-26T14:14:16;9.68;;;1.73;;
52554;SDS011;38455;52.710;6.502;2023-06-26T14:16:42;4.80;;;1.20;;
52554;SDS011;38455;52.710;6.502;2023-06-26T14:19:08;5.43;;;1.27;;
52554;SDS011;38455;52.710;6.502;2023-06-26T14:21:40;7.95;;;1.13;;
52554;SDS011;38455;52.710;6.502;2023-06-26T14:24:06;6.05;;;1.05;;
52554;SDS011;38455;52.710;6.502;2023-06-26T14:26:32;5.32;;;1.13;;
52554;SDS011;38455;52.710;6.502;2023-06-26T14:28:59;5.90;;;1.58;;
52554;SDS011;38455;52.710;6.502;2023-06-26T14:31:25;4.72;;;1.40;;
52554;SDS011;38455;52.710;6.502;2023-06-26T14:33:51;5.70;;;1.20;;
52554;SDS011;38455;52.710;6.502;2023-06-26T14:36:17;5.88;;;1.75;;
52554;SDS011;38455;52.710;6.502;2023-06-26T14:38:43;5.65;;;1.20;;
52554;SDS011;38455;52.710;6.502;2023-06-26T14:41:08;5.15;;;1.17;;
52554;SDS011;38455;52.710;6.502;2023-06-26T14:43:34;4.35;;;0.93;;
52554;SDS011;38455;52.710;6.502;2023-06-26T14:46:00;7.40;;;1.95;;
52554;SDS011;38455;52.710;6.502;2023-06-26T14:48:31;5.25;;;1.02;;
52554;SDS011;38455;52.710;6.502;2023-06-26T14:50:57;4.25;;;1.17;;
52554;SDS011;38455;52.710;6.502;2023-06-26T14:53:25;2.67;;;0.90;;